Current | Forecast
Updated: 11:55 PM JST on February 21, 2018
Observed at Iwakuni MCAS, Japan
Temperature 39°F
Windchill 35°F
Humidity 70%
Dew Point 30°F
Wind WNW at 6 mph
Pressure 30.13 in (Rising)
Conditions Partly Cloudy
Visibility 6.2 miles
UV 0 out of 16
Clouds (FEW) : 10000 ft
Yesterday's Maximum 54°F
Yesterday's Minimum 39°F
Yesterday's Heating Degree Days 19
Sunrise6:47 AM JST
Sunset5:59 PM JST
Moon Rise10:34 AM JST
Moon Set
Moon PhaseMoon Phase
Waxing Crescent
Raw METARMETAR RJOI 211455Z 30005KT 9999 FEW100 04/M01 A3013 RMK SLP202 T00391011 401220039 52010


Monday
. High: 71° F.
Tuesday
. High: 75° F.
Wednesday
. High: 73° F.
Thursday
. High: 73° F.
Friday
. High: 73° F.
Saturday
. High: 75° F.
Sunday
. High: 77° F.
Monday
. High: 78° F.

Units: English | Metric

Find the Weather for any City, State or Zipcode, or Country:

U.S. State List | Severe Weather | Tropical Storms | Ski Conditions
United States | Canada | Central America | South America | Asia | Europe | Australia | Africa | Islands

Weather Underground

© Copyright 2018
The Weather Company, LLC